Terminal Aerodrome Forecast
Issued by NWS Charleston, WV

Current Version | Previous Version | Graphics & Text | Print | Product List | Glossary On
Versions: 1 2 3 4 5 6 7 8 9 10 11 12 13 14 15 16 17 18 19 20 21 22 23 24 25
000
FTUS41 KRLX 272300 RRA
TAFBKW
TAF
KBKW 272341Z 2800/2824 30009KT 4SM -SHSN SCT015 OVC030
      TEMPO 2800/2803 2SM -SHSN BR BKN015
     FM280700 31007KT 5SM -SHSN OVC025
     FM281200 29005KT 6SM -SHSN BKN020
     FM281500 29006KT P6SM SCT025
     FM282000 25004KT P6SM BKN090=

USA.gov is the U.S. government's official web portal to all federal, state and local government web resources and services.